Denver International Airport
KDEN : now visible

Airfield :











YOU CAN JOIN US ON...

 
LOGIN :

Register | Disclaimer

   EN    FR    IT 

 









Legend :    VFR   Marginal VFR   IFR   Intensive IFR   Very Intensive IFR
Visi :
Ceiling :
>= 8 km
>= 3000ft
5 to 8 km
1000 to 3000 ft
1500m to 5 km
500 to 1000 ft
800 to 1500m
200 to 500 ft
< 800m
< 200 ft
Symbols :   Thunderstorms  Fog  Heavy snow  Heavy precipitations  Wind > 20 kt






- Airport Elevation : 5431 ft
- IATA code : DEN


KDEN - Denver International

CURRENT METAR :
  • 281753Z 31010G20KT 10SM FEW070 SCT150 SCT220 06/M08 A2987 RMK AO2 SLP110 T00561078 10056 21022 51014 $

EXPIRED METARs :
  • 281653Z 30015KT 10SM FEW070 SCT140 BKN220 04/M07 A2986 RMK AO2 SLP108 T00441072 $
  • 281553Z 29013KT 10SM FEW070 SCT150 BKN220 02/M07 A2984 RMK AO2 SLP108 T00171067 $

TAF KDEN
Valid from the 28 at 18:00 until the 30 at 00:00 UTC


281745Z 2818/2924 33018G28KT P6SM FEW070 SCT150
FM290200 22010KT P6SM FEW070
FM291200 17008KT P6SM FEW180
FM292000 11008KT P6SM SCT080 BKN180



MET'MAP, your aeronautical weather chart ! - Copyright ORBIFLY December 2007 - Disclaimer

ORBIFLY MET'MAP TEAM :

Programming & Development : Alexandra Zaïnal
Concept & original design : Baudouin d'Aumeries
Assistance for programming : Marc-Olivier Méhu
Technical & hardware support : Manuel Goepfert

Contact : metmap@orbifly.com




SOURCES & CREDITS :

   NOAA       Earth
Advisory